Sierra Vista Municipal Libby Army Air Field
KFHU : now visible

Airfield :











YOU CAN JOIN US ON...

 
LOGIN :

Register | Disclaimer

   EN    FR    IT 

 









Legend :    VFR   Marginal VFR   IFR   Intensive IFR   Very Intensive IFR
Visi :
Ceiling :
>= 8 km
>= 3000ft
5 to 8 km
1000 to 3000 ft
1500m to 5 km
500 to 1000 ft
800 to 1500m
200 to 500 ft
< 800m
< 200 ft
Symbols :   Thunderstorms  Fog  Heavy snow  Heavy precipitations  Wind > 20 kt






- Airport Elevation : 4719 ft
- IATA code : FHU


KFHU - Sierra Vista Municipal Libby Army Air Field

CURRENT METAR :
  • 291558Z AUTO 10007KT 10SM CLR 30/06 A3022 RMK AO2 SLP149 T02980058

EXPIRED METARs :
  • 291458Z AUTO 09006KT 9SM CLR 28/05 A3022 RMK AO2 SLP151 T02790054 52013
  • 291358Z AUTO 08004KT 10SM CLR 26/00 A3021 RMK AO2 SLP145 T02621003

TAF TAF KFHU
Valid from the 29 at 10:00 until the 30 at 16:00 UTC


291006Z 2910/3016 28009KT 9999 SKC QNH3014INS
BECMG 2914/2915 VRB06KT 9999 FEW150 QNH3021INS
BECMG 2919/2920 VRB06KT 9999 VCSH FEW100 SCT130 QNH3014INS
BECMG 3003/3004 VRB06KT 9999 NSW FEW110 FEW150 QNH3013INS TX35/2921Z TN19/2912Z
KZAB FIR / North America



MET'MAP, your aeronautical weather chart ! - Copyright ORBIFLY December 2007 - Disclaimer

ORBIFLY MET'MAP TEAM :

Programming & Development : Alexandra Zaïnal
Concept & original design : Baudouin d'Aumeries
Assistance for programming : Marc-Olivier Méhu
Technical & hardware support : Manuel Goepfert

Contact : metmap@orbifly.com




SOURCES & CREDITS :

   NOAA       Earth
Advisory